Time;durP1;ratioP1;P1;durP2;ratioP2;P2;SDS_P1;SDS_P2;PMS_P1;PMS_P2;Temp;Humidity;BMP_temperature;BMP_pressure;BME280_temperature;BME280_humidity;BME280_pressure;Samples;Min_cycle;Max_cycle;Signal;HPM_P1;HPM_P2
2022/09/27 00:00:15;;;;;;;;;;;;;;;10.28;74.51367;99749.66;;;;-76
2022/09/27 00:05:14;;;;;;;;;;;;;;;10.22;74.33691;99757.64;;;;-75
2022/09/27 00:10:14;;;;;;;;;;;;;;;10.13;74.33398;99754.34;;;;-78
2022/09/27 00:15:14;;;;;;;;;;;;;;;10.04;74.22949;99755.89;;;;-76
2022/09/27 00:19:28;;;;;;;2.5;0.4;;;;;;;;;;;;;-75
2022/09/27 00:20:14;;;;;;;;;;;;;;;9.99;74.11133;99756.49;;;;-76
2022/09/27 00:25:14;;;;;;;;;;;;;;;9.99;74.35352;99751.29;;;;-76
2022/09/27 00:30:14;;;;;;;;;;;;;;;10.01;74.26758;99755.45;;;;-76
2022/09/27 00:35:15;;;;;;;;;;;;;;;9.97;73.99609;99758.5;;;;-75
2022/09/27 00:40:14;;;;;;;;;;;;;;;9.96;73.88379;99754.27;;;;-71
2022/09/27 00:45:16;;;;;;;;;;;;;;;9.92;73.99805;99753.16;;;;-71
2022/09/27 00:49:30;;;;;;;1.3;0.4;;;;;;;;;;;;;-72
2022/09/27 00:50:17;;;;;;;;;;;;;;;9.89;73.76074;99753.11;;;;-72
2022/09/27 00:55:16;;;;;;;;;;;;;;;9.82;73.94727;99768.66;;;;-72
2022/09/27 01:00:15;;;;;;;;;;;;;;;9.78;73.68652;99765.5;;;;-76
2022/09/27 01:05:15;;;;;;;;;;;;;;;9.77;73.92871;99759.25;;;;-76
2022/09/27 01:10:15;;;;;;;;;;;;;;;9.74;73.60156;99761.07;;;;-76
2022/09/27 01:15:21;;;;;;;;;;;;;;;9.67;73.57031;99759.3;;;;-77
2022/09/27 01:19:38;;;;;;;1.6;0.5;;;;;;;;;;;;;-76
2022/09/27 01:20:32;;;;;;;;;;;;;;;9.63;73.43945;99761.83;;;;-75
2022/09/27 01:25:24;;;;;;;;;;;;;;;9.57;73.61816;99763.5;;;;-77
2022/09/27 01:30:25;;;;;;;;;;;;;;;9.55;73.78125;99762.58;;;;-76
2022/09/27 01:35:20;;;;;;;;;;;;;;;9.52;73.77637;99767.34;;;;-76
2022/09/27 01:40:19;;;;;;;;;;;;;;;9.53;73.60059;99769.38;;;;-77
2022/09/27 01:45:17;;;;;;;;;;;;;;;9.48;73.61523;99767.2;;;;-75
2022/09/27 01:49:33;;;;;;;2.4;0.4;;;;;;;;;;;;;-74
2022/09/27 01:50:15;;;;;;;;;;;;;;;9.54;73.61328;99771.28;;;;-75
2022/09/27 01:55:17;;;;;;;;;;;;;;;9.56;73.3623;99771.49;;;;-75
2022/09/27 02:00:15;;;;;;;;;;;;;;;9.58;73.3877;99763.2;;;;-75
2022/09/27 02:05:16;;;;;;;;;;;;;;;9.62;73.33984;99748.78;;;;-76
2022/09/27 02:10:15;;;;;;;;;;;;;;;9.63;73.5625;99747.16;;;;-75
2022/09/27 02:15:15;;;;;;;;;;;;;;;9.65;73.38867;99750.89;;;;-75
2022/09/27 02:19:35;;;;;;;3;0.4;;;;;;;;;;;;;-75
2022/09/27 02:20:18;;;;;;;;;;;;;;;9.59;73.28906;99749.38;;;;-76
2022/09/27 02:25:21;;;;;;;;;;;;;;;9.64;73.18652;99748.07;;;;-71
2022/09/27 02:30:16;;;;;;;;;;;;;;;9.58;72.98926;99758.75;;;;-72
2022/09/27 02:35:17;;;;;;;;;;;;;;;9.51;73.12109;99749.77;;;;-71
2022/09/27 02:40:15;;;;;;;;;;;;;;;9.48;73.12695;99746.84;;;;-71
2022/09/27 02:45:15;;;;;;;;;;;;;;;9.41;73.03809;99751.06;;;;-72
2022/09/27 02:49:39;;;;;;;2.3;0.6;;;;;;;;;;;;;-75
2022/09/27 02:50:25;;;;;;;;;;;;;;;9.34;73.12695;99754.95;;;;-75
2022/09/27 02:55:17;;;;;;;;;;;;;;;9.34;73.22461;99753.68;;;;-74
2022/09/27 03:00:16;;;;;;;;;;;;;;;9.36;73.33984;99758.77;;;;-75
2022/09/27 03:05:16;;;;;;;;;;;;;;;9.34;73.54688;99774.3;;;;-75
2022/09/27 03:10:18;;;;;;;;;;;;;;;9.32;73.75195;99768.39;;;;-75
2022/09/27 03:15:14;;;;;;;;;;;;;;;9.3;73.81738;99769;;;;-75
2022/09/27 03:19:32;;;;;;;1.2;0.4;;;;;;;;;;;;;-76
2022/09/27 03:20:14;;;;;;;;;;;;;;;9.28;73.70215;99761.15;;;;-75
2022/09/27 03:25:14;;;;;;;;;;;;;;;9.25;73.53125;99764.22;;;;-76
2022/09/27 03:30:15;;;;;;;;;;;;;;;9.18;73.43066;99761.72;;;;-75
2022/09/27 03:35:13;;;;;;;;;;;;;;;9.13;73.24609;99756.52;;;;-75
2022/09/27 03:40:14;;;;;;;;;;;;;;;9.09;73.37109;99766.64;;;;-77
2022/09/27 03:45:14;;;;;;;;;;;;;;;9.07;73.1582;99759.94;;;;-75
2022/09/27 03:49:33;;;;;;;1.3;0.4;;;;;;;;;;;;;-76
2022/09/27 03:50:14;;;;;;;;;;;;;;;9.01;73.08301;99762.27;;;;-76
2022/09/27 03:55:14;;;;;;;;;;;;;;;8.99;73.01172;99756.42;;;;-75
2022/09/27 04:00:15;;;;;;;;;;;;;;;9;73.14746;99758.23;;;;-76
2022/09/27 04:05:13;;;;;;;;;;;;;;;8.92;73.07813;99756.35;;;;-76
2022/09/27 04:10:14;;;;;;;;;;;;;;;8.9;73.19727;99749.49;;;;-75
2022/09/27 04:15:14;;;;;;;;;;;;;;;8.94;73.38965;99752.06;;;;-76
2022/09/27 04:19:35;;;;;;;1.6;0.4;;;;;;;;;;;;;-76
2022/09/27 04:20:14;;;;;;;;;;;;;;;8.98;73.25488;99762.2;;;;-76
2022/09/27 04:25:14;;;;;;;;;;;;;;;8.99;73.06738;99752.97;;;;-76
2022/09/27 04:30:14;;;;;;;;;;;;;;;8.97;73.08496;99752.36;;;;-76
2022/09/27 04:40:14;;;;;;;;;;;;;;;8.93;72.90332;99747.42;;;;-77
2022/09/27 04:45:14;;;;;;;;;;;;;;;8.94;72.92676;99753.2;;;;-76
2022/09/27 04:49:34;;;;;;;2.9;0.4;;;;;;;;;;;;;-78
2022/09/27 04:50:14;;;;;;;;;;;;;;;8.91;73.02051;99754.45;;;;-76
2022/09/27 04:55:14;;;;;;;;;;;;;;;8.91;72.76758;99756.07;;;;-76
2022/09/27 05:00:14;;;;;;;;;;;;;;;8.86;72.60352;99751.05;;;;-77
2022/09/27 05:05:14;;;;;;;;;;;;;;;8.87;72.85938;99755.51;;;;-75
2022/09/27 05:10:14;;;;;;;;;;;;;;;8.86;72.76953;99765.3;;;;-75
2022/09/27 05:15:14;;;;;;;;;;;;;;;8.87;72.68262;99785.23;;;;-77
2022/09/27 05:19:34;;;;;;;2.7;0.4;;;;;;;;;;;;;-76
2022/09/27 05:20:13;;;;;;;;;;;;;;;8.88;73.30469;99780.22;;;;-75
2022/09/27 05:25:14;;;;;;;;;;;;;;;8.92;73.14453;99778.61;;;;-75
2022/09/27 05:30:14;;;;;;;;;;;;;;;9;72.9707;99779.79;;;;-77
2022/09/27 05:35:14;;;;;;;;;;;;;;;8.99;72.87891;99775.13;;;;-74
2022/09/27 05:40:23;;;;;;;;;;;;;;;9.02;73.08398;99774.7;;;;-76
2022/09/27 05:45:14;;;;;;;;;;;;;;;9.06;72.76953;99776.94;;;;-76
2022/09/27 05:49:36;;;;;;;1;0.4;;;;;;;;;;;;;-77
2022/09/27 05:50:13;;;;;;;;;;;;;;;9.08;72.54102;99777.91;;;;-75
2022/09/27 05:55:14;;;;;;;;;;;;;;;9.07;72.63867;99802.64;;;;-77
2022/09/27 06:00:14;;;;;;;;;;;;;;;9.12;72.72363;99807.61;;;;-75
2022/09/27 06:05:13;;;;;;;;;;;;;;;9.15;72.8623;99796.98;;;;-75
2022/09/27 06:10:13;;;;;;;;;;;;;;;9.17;73.11816;99786.82;;;;-78
2022/09/27 06:15:14;;;;;;;;;;;;;;;9.21;73.00586;99780.91;;;;-76
2022/09/27 06:19:38;;;;;;;2.4;0.4;;;;;;;;;;;;;-77
2022/09/27 06:20:13;;;;;;;;;;;;;;;9.23;72.90918;99780.2;;;;-76
2022/09/27 06:25:14;;;;;;;;;;;;;;;9.23;72.75488;99776.12;;;;-77
2022/09/27 06:30:15;;;;;;;;;;;;;;;9.22;72.67383;99780.55;;;;-75
2022/09/27 06:35:14;;;;;;;;;;;;;;;9.24;72.68945;99789.78;;;;-76
2022/09/27 06:40:14;;;;;;;;;;;;;;;9.28;72.4873;99786.77;;;;-78
2022/09/27 06:45:15;;;;;;;;;;;;;;;9.32;72.62598;99793.02;;;;-79
2022/09/27 06:49:36;;;;;;;1.8;0.5;;;;;;;;;;;;;-77
2022/09/27 06:50:14;;;;;;;;;;;;;;;9.35;72.81738;99791.13;;;;-77
2022/09/27 06:55:14;;;;;;;;;;;;;;;9.4;72.7041;99797.89;;;;-76
2022/09/27 07:05:14;;;;;;;;;;;;;;;9.54;73.125;99808.36;;;;-76
2022/09/27 07:10:14;;;;;;;;;;;;;;;9.64;72.64453;99815.73;;;;-75
2022/09/27 07:15:14;;;;;;;;;;;;;;;9.7;72.58984;99818.42;;;;-75
2022/09/27 07:19:37;;;;;;;1.7;0.5;;;;;;;;;;;;;-77
2022/09/27 07:20:14;;;;;;;;;;;;;;;9.8;72.52734;99826.47;;;;-76
2022/09/27 07:25:14;;;;;;;;;;;;;;;9.89;72.02246;99827.25;;;;-76
2022/09/27 07:30:15;;;;;;;;;;;;;;;10.01;71.89941;99828.88;;;;-77
2022/09/27 07:35:14;;;;;;;;;;;;;;;10.15;71.7002;99842.96;;;;-76
2022/09/27 07:40:14;;;;;;;;;;;;;;;10.26;71.99512;99857.27;;;;-76
2022/09/27 07:45:17;;;;;;;;;;;;;;;10.3;72.0918;99843.5;;;;-77
2022/09/27 07:49:37;;;;;;;2.6;0.5;;;;;;;;;;;;;-77
2022/09/27 07:50:13;;;;;;;;;;;;;;;10.28;72.02051;99820.2;;;;-77
2022/09/27 07:55:16;;;;;;;;;;;;;;;10.33;72.00586;99821.16;;;;-77
2022/09/27 08:00:15;;;;;;;;;;;;;;;10.41;71.71973;99828.89;;;;-78
2022/09/27 08:05:14;;;;;;;;;;;;;;;10.49;71.45605;99830.11;;;;-76
2022/09/27 08:10:14;;;;;;;;;;;;;;;10.61;71.24219;99833.8;;;;-77
2022/09/27 08:15:13;;;;;;;;;;;;;;;10.7;71.29004;99840.41;;;;-77
2022/09/27 08:19:38;;;;;;;3.3;0.5;;;;;;;;;;;;;-77
2022/09/27 08:20:13;;;;;;;;;;;;;;;10.81;71.06445;99836.88;;;;-77
2022/09/27 08:25:13;;;;;;;;;;;;;;;10.9;71.17871;99858.73;;;;-76
2022/09/27 08:30:14;;;;;;;;;;;;;;;10.94;71.08594;99870.95;;;;-76
2022/09/27 08:35:14;;;;;;;;;;;;;;;10.9;71.59082;99870.41;;;;-77
2022/09/27 08:40:22;;;;;;;;;;;;;;;10.89;71.65332;99878.13;;;;-76
2022/09/27 08:45:19;;;;;;;;;;;;;;;10.81;71.93164;99881.24;;;;-78
2022/09/27 08:49:41;;;;;;;1.1;0.4;;;;;;;;;;;;;-77
2022/09/27 08:50:21;;;;;;;;;;;;;;;10.77;72.22363;99888.89;;;;-77
2022/09/27 08:55:23;;;;;;;;;;;;;;;10.76;71.83398;99886.1;;;;-76
2022/09/27 09:00:14;;;;;;;;;;;;;;;10.79;71.63672;99884.13;;;;-77
2022/09/27 09:05:15;;;;;;;;;;;;;;;10.83;71.47949;99886.53;;;;-77
2022/09/27 09:12:45;;;;;;;;;;;;;;;10.88;71.53125;99886.59;;;;-77
2022/09/27 09:15:18;;;;;;;;;;;;;;;10.92;71.55957;99890.08;;;;-76
2022/09/27 09:19:46;;;;;;;1.5;0.4;;;;;;;;;;;;;-77
2022/09/27 09:20:26;;;;;;;;;;;;;;;10.94;71.40723;99879.9;;;;-76
2022/09/27 09:25:18;;;;;;;;;;;;;;;10.96;71.58789;99886.45;;;;-77
2022/09/27 09:30:22;;;;;;;;;;;;;;;10.97;72.33398;99885.41;;;;-75
2022/09/27 09:35:17;;;;;;;;;;;;;;;10.99;71.63672;99892.12;;;;-76
2022/09/27 09:40:20;;;;;;;;;;;;;;;11;71.75;99895.77;;;;-75
2022/09/27 09:45:19;;;;;;;;;;;;;;;10.99;72.54785;99884.08;;;;-77
2022/09/27 09:49:45;;;;;;;2.3;0.6;;;;;;;;;;;;;-77
2022/09/27 09:50:19;;;;;;;;;;;;;;;11;71.90625;99877.27;;;;-76
2022/09/27 09:55:18;;;;;;;;;;;;;;;10.97;72.71191;99873.25;;;;-77
2022/09/27 10:00:16;;;;;;;;;;;;;;;10.92;73.02441;99866.13;;;;-77
2022/09/27 10:05:16;;;;;;;;;;;;;;;10.9;73.14355;99877.72;;;;-76
2022/09/27 10:10:16;;;;;;;;;;;;;;;10.85;73.20215;99883.03;;;;-76
2022/09/27 10:15:17;;;;;;;;;;;;;;;10.82;73.61914;99898.99;;;;-77
2022/09/27 10:19:42;;;;;;;3.4;0.5;;;;;;;;;;;;;-77
2022/09/27 10:20:20;;;;;;;;;;;;;;;10.8;72.67188;99885.5;;;;-75
2022/09/27 10:25:15;;;;;;;;;;;;;;;10.8;72.35156;99876.8;;;;-76
2022/09/27 10:30:23;;;;;;;;;;;;;;;10.83;72.22266;99873.65;;;;-76
2022/09/27 10:35:35;;;;;;;;;;;;;;;10.9;72.25684;99870.81;;;;-77
2022/09/27 10:40:27;;;;;;;;;;;;;;;11.03;72.03223;99868.9;;;;-76
2022/09/27 10:45:30;;;;;;;;;;;;;;;11.16;72.44238;99857.56;;;;-78
2022/09/27 10:49:43;;;;;;;4.3;0.6;;;;;;;;;;;;;-77
2022/09/27 10:50:20;;;;;;;;;;;;;;;11.35;73.68457;99857.45;;;;-76
2022/09/27 10:55:19;;;;;;;;;;;;;;;11.45;72.6123;99857.23;;;;-77
2022/09/27 11:00:23;;;;;;;;;;;;;;;11.52;73.3252;99878.2;;;;-77
2022/09/27 11:05:16;;;;;;;;;;;;;;;11.47;73.09473;99912;;;;-76
2022/09/27 11:10:27;;;;;;;;;;;;;;;11.41;72.40625;99910.94;;;;-77
2022/09/27 11:15:23;;;;;;;;;;;;;;;11.33;72.52637;99893.17;;;;-72
2022/09/27 11:19:51;;;;;;;1.5;0.5;;;;;;;;;;;;;-74
2022/09/27 11:20:28;;;;;;;;;;;;;;;11.26;72.48242;99888.68;;;;-77
2022/09/27 11:25:20;;;;;;;;;;;;;;;11.21;72.70703;99883.47;;;;-77
2022/09/27 11:30:16;;;;;;;;;;;;;;;11.2;72.2832;99878.58;;;;-78
2022/09/27 11:35:31;;;;;;;;;;;;;;;11.22;72.59668;99868.56;;;;-77
2022/09/27 11:40:22;;;;;;;;;;;;;;;11.31;72.29004;99869.03;;;;-76
2022/09/27 11:45:23;;;;;;;;;;;;;;;11.4;72.94922;99862.64;;;;-77
2022/09/27 11:49:52;;;;;;;1.8;0.4;;;;;;;;;;;;;-77
2022/09/27 11:50:24;;;;;;;;;;;;;;;11.55;72.50879;99854.45;;;;-76
2022/09/27 11:55:23;;;;;;;;;;;;;;;11.65;72.34668;99855.81;;;;-76
2022/09/27 12:00:23;;;;;;;;;;;;;;;11.73;72.30371;99858.12;;;;-77
2022/09/27 12:05:20;;;;;;;;;;;;;;;11.81;72.85059;99859.75;;;;-72
2022/09/27 12:10:17;;;;;;;;;;;;;;;11.86;72.68066;99863.8;;;;-72
2022/09/27 12:15:18;;;;;;;;;;;;;;;11.85;72.63574;99869.5;;;;-73
2022/09/27 12:19:49;;;;;;;2.5;0.7;;;;;;;;;;;;;-72
2022/09/27 12:20:19;;;;;;;;;;;;;;;11.8;73.20508;99868.13;;;;-72
2022/09/27 12:25:18;;;;;;;;;;;;;;;11.71;73.45801;99868.63;;;;-72
2022/09/27 12:30:15;;;;;;;;;;;;;;;11.54;74.21777;99868.3;;;;-70
2022/09/27 12:35:19;;;;;;;;;;;;;;;11.46;74.36035;99880.64;;;;-73
2022/09/27 12:40:18;;;;;;;;;;;;;;;11.34;75.03906;99892.78;;;;-73
2022/09/27 12:45:19;;;;;;;;;;;;;;;11.23;74.96387;99885.14;;;;-72
2022/09/27 12:49:51;;;;;;;2.3;0.7;;;;;;;;;;;;;-74
2022/09/27 12:50:18;;;;;;;;;;;;;;;11.19;74.57813;99885.1;;;;-72
2022/09/27 12:55:38;;;;;;;;;;;;;;;11.1;73.34473;99862.97;;;;-73
2022/09/27 13:00:20;;;;;;;;;;;;;;;11;73.65039;99873.86;;;;-73
2022/09/27 13:05:34;;;;;;;;;;;;;;;10.93;73.9248;99877.14;;;;-73
2022/09/27 13:10:25;;;;;;;;;;;;;;;10.89;73.62988;99875.68;;;;-73
2022/09/27 13:15:17;;;;;;;;;;;;;;;10.87;73.71582;99873.56;;;;-72
2022/09/27 13:19:51;;;;;;;3.5;0.8;;;;;;;;;;;;;-78
2022/09/27 13:20:25;;;;;;;;;;;;;;;10.83;73.62109;99857.64;;;;-79
2022/09/27 13:25:27;;;;;;;;;;;;;;;10.78;73.7666;99873.59;;;;-76
2022/09/27 13:30:24;;;;;;;;;;;;;;;10.71;73.92285;99869.9;;;;-77
2022/09/27 13:35:25;;;;;;;;;;;;;;;10.73;73.72656;99865.48;;;;-77
2022/09/27 13:40:27;;;;;;;;;;;;;;;10.75;74.22852;99864.49;;;;-80
2022/09/27 13:45:29;;;;;;;;;;;;;;;10.8;73.53906;99861.45;;;;-77
2022/09/27 13:49:52;;;;;;;1.8;0.6;;;;;;;;;;;;;-76
2022/09/27 13:50:23;;;;;;;;;;;;;;;10.83;73.62109;99859.62;;;;-79
2022/09/27 13:55:24;;;;;;;;;;;;;;;10.86;73.35742;99854.66;;;;-79
2022/09/27 14:00:15;;;;;;;;;;;;;;;10.85;73.29102;99846.35;;;;-79
2022/09/27 14:05:20;;;;;;;;;;;;;;;10.87;73.68262;99841.11;;;;-78
2022/09/27 14:10:15;;;;;;;;;;;;;;;10.88;73.69531;99836.23;;;;-79
2022/09/27 14:15:21;;;;;;;;;;;;;;;10.91;73.85547;99827.63;;;;-77
2022/09/27 14:19:52;;;;;;;2.4;0.6;;;;;;;;;;;;;-72
2022/09/27 14:20:24;;;;;;;;;;;;;;;10.96;73.74219;99818.31;;;;-72
2022/09/27 14:25:20;;;;;;;;;;;;;;;11.03;73.97461;99808.69;;;;-76
2022/09/27 14:30:17;;;;;;;;;;;;;;;11.11;73.83398;99803.13;;;;-78
2022/09/27 14:40:21;;;;;;;;;;;;;;;11.23;74.66406;99791.82;;;;-77
2022/09/27 14:45:22;;;;;;;;;;;;;;;11.4;74.45996;99790.59;;;;-77
2022/09/27 14:49:58;;;;;;;1.4;0.6;;;;;;;;;;;;;-72
2022/09/27 14:50:20;;;;;;;;;;;;;;;11.69;73.37598;99788.92;;;;-74
2022/09/27 14:55:19;;;;;;;;;;;;;;;11.77;73.93457;99783.44;;;;-71
2022/09/27 15:00:20;;;;;;;;;;;;;;;11.76;74.17578;99781.68;;;;-71
2022/09/27 15:05:16;;;;;;;;;;;;;;;11.72;74.33789;99775.92;;;;-71
2022/09/27 15:10:15;;;;;;;;;;;;;;;11.65;74.14844;99780.43;;;;-76
2022/09/27 15:15:16;;;;;;;;;;;;;;;11.58;74.13574;99776.98;;;;-77
2022/09/27 15:20:03;;;;;;;1.5;0.6;;;;;;;;;;;;;-77
2022/09/27 15:20:26;;;;;;;;;;;;;;;11.52;73.7373;99778.14;;;;-75
2022/09/27 15:25:19;;;;;;;;;;;;;;;11.47;73.77246;99771.2;;;;-76
2022/09/27 15:30:19;;;;;;;;;;;;;;;11.42;73.47656;99765.59;;;;-76
2022/09/27 15:35:23;;;;;;;;;;;;;;;11.39;73.43652;99769.09;;;;-75
2022/09/27 15:40:28;;;;;;;;;;;;;;;11.35;73.1416;99769.53;;;;-74
2022/09/27 15:45:23;;;;;;;;;;;;;;;11.33;73.00391;99788.91;;;;-76
2022/09/27 15:49:56;;;;;;;2.8;0.7;;;;;;;;;;;;;-77
2022/09/27 15:50:24;;;;;;;;;;;;;;;11.26;73.3252;99791.48;;;;-76
2022/09/27 15:55:15;;;;;;;;;;;;;;;11.21;72.83008;99784.61;;;;-77
2022/09/27 16:00:15;;;;;;;;;;;;;;;11.17;72.92285;99786.88;;;;-77
2022/09/27 16:05:14;;;;;;;;;;;;;;;11.12;72.71387;99795.78;;;;-77
2022/09/27 16:10:20;;;;;;;;;;;;;;;11.08;72.74121;99786.63;;;;-77
2022/09/27 16:15:14;;;;;;;;;;;;;;;11.04;72.72266;99790.27;;;;-76
2022/09/27 16:19:55;;;;;;;1.7;0.6;;;;;;;;;;;;;-78
2022/09/27 16:20:18;;;;;;;;;;;;;;;10.98;72.80176;99796.95;;;;-78
2022/09/27 16:25:13;;;;;;;;;;;;;;;10.91;73.59961;99812.15;;;;-77
2022/09/27 16:30:16;;;;;;;;;;;;;;;10.77;73.33301;99804.52;;;;-77
2022/09/27 16:35:16;;;;;;;;;;;;;;;10.65;73.37988;99794.33;;;;-78
2022/09/27 16:40:16;;;;;;;;;;;;;;;10.51;73.2666;99773.22;;;;-77
2022/09/27 16:45:15;;;;;;;;;;;;;;;10.41;73.22754;99756.67;;;;-77
2022/09/27 16:55:14;;;;;;;;;;;;;;;10.3;73.35352;99742.28;;;;-77
2022/09/27 17:00:15;;;;;;;;;;;;;;;10.22;73.39453;99738.41;;;;-77
2022/09/27 17:05:13;;;;;;;;;;;;;;;10.15;73.41797;99740.05;;;;-79
2022/09/27 17:10:14;;;;;;;;;;;;;;;10.09;73.42773;99734.24;;;;-77
2022/09/27 17:15:13;;;;;;;;;;;;;;;10.06;73.52441;99734.02;;;;-78
2022/09/27 17:19:57;;;;;;;2.4;0.8;;;;;;;;;;;;;-78
2022/09/27 17:20:13;;;;;;;;;;;;;;;9.99;73.66797;99729.29;;;;-79
2022/09/27 17:25:14;;;;;;;;;;;;;;;9.94;73.71289;99732.37;;;;-77
2022/09/27 17:30:14;;;;;;;;;;;;;;;9.85;73.48926;99737.83;;;;-79
2022/09/27 17:35:14;;;;;;;;;;;;;;;9.8;73.71191;99732.34;;;;-79
2022/09/27 17:40:15;;;;;;;;;;;;;;;9.73;73.76758;99736.06;;;;-78
2022/09/27 17:45:14;;;;;;;;;;;;;;;9.67;73.62598;99737.05;;;;-78
2022/09/27 17:50:28;;;;;;;;;;;;;;;9.65;73.51172;99729.98;;;;-76
2022/09/27 17:55:14;;;;;;;;;;;;;;;9.61;73.59082;99732.85;;;;-79
2022/09/27 18:00:14;;;;;;;;;;;;;;;9.57;73.90625;99734.73;;;;-72
2022/09/27 18:05:15;;;;;;;;;;;;;;;9.51;73.58496;99738.1;;;;-72
2022/09/27 18:10:15;;;;;;;;;;;;;;;9.52;73.90918;99734.77;;;;-72
2022/09/27 18:15:15;;;;;;;;;;;;;;;9.5;73.80469;99741.12;;;;-73
2022/09/27 18:20:01;;;;;;;2.4;1.1;;;;;;;;;;;;;-75
2022/09/27 18:20:13;;;;;;;;;;;;;;;9.46;73.54492;99745.8;;;;-75
2022/09/27 18:25:14;;;;;;;;;;;;;;;9.44;73.71875;99751.52;;;;-72
2022/09/27 18:30:14;;;;;;;;;;;;;;;9.41;73.91113;99754.26;;;;-74
2022/09/27 18:35:14;;;;;;;;;;;;;;;9.4;73.9541;99760.17;;;;-73
2022/09/27 18:40:15;;;;;;;;;;;;;;;9.39;74.01855;99757.77;;;;-73
2022/09/27 18:45:14;;;;;;;;;;;;;;;9.36;73.68262;99750.8;;;;-73
2022/09/27 18:50:00;;;;;;;2.9;1.3;;;;;;;;;;;;;-74
2022/09/27 18:50:13;;;;;;;;;;;;;;;9.32;73.95215;99743.94;;;;-73
2022/09/27 18:55:14;;;;;;;;;;;;;;;9.31;74.18359;99738.35;;;;-74
2022/09/27 19:00:15;;;;;;;;;;;;;;;9.29;74.24512;99737.09;;;;-77
2022/09/27 19:05:14;;;;;;;;;;;;;;;9.26;74.46094;99741.97;;;;-78
2022/09/27 19:10:17;;;;;;;;;;;;;;;9.19;74.24023;99730.31;;;;-79
2022/09/27 19:15:15;;;;;;;;;;;;;;;9.12;73.97363;99732.82;;;;-79
2022/09/27 19:20:01;;;;;;;3.5;1.3;;;;;;;;;;;;;-77
2022/09/27 19:20:13;;;;;;;;;;;;;;;9.08;73.89063;99729.41;;;;-76
2022/09/27 19:25:14;;;;;;;;;;;;;;;9.04;74.08008;99734.98;;;;-77
2022/09/27 19:30:17;;;;;;;;;;;;;;;8.98;74.10547;99734.55;;;;-77
2022/09/27 19:35:14;;;;;;;;;;;;;;;8.95;74.2002;99732.39;;;;-78
2022/09/27 19:40:13;;;;;;;;;;;;;;;8.89;74.50781;99734.42;;;;-79
2022/09/27 19:45:14;;;;;;;;;;;;;;;8.86;74.4375;99727.77;;;;-78
2022/09/27 19:50:01;;;;;;;3.4;1.7;;;;;;;;;;;;;-78
2022/09/27 19:50:13;;;;;;;;;;;;;;;8.79;74.2373;99724.28;;;;-76
2022/09/27 19:55:14;;;;;;;;;;;;;;;8.71;74.27832;99726.13;;;;-78
2022/09/27 20:00:15;;;;;;;;;;;;;;;8.68;74.08789;99726.52;;;;-77
2022/09/27 20:05:14;;;;;;;;;;;;;;;8.6;74.44824;99725.33;;;;-78
2022/09/27 20:10:14;;;;;;;;;;;;;;;8.56;74.1543;99726.88;;;;-77
2022/09/27 20:15:13;;;;;;;;;;;;;;;8.48;74.06445;99726.41;;;;-77
2022/09/27 20:20:03;;;;;;;4.5;2.1;;;;;;;;;;;;;-77
2022/09/27 20:20:14;;;;;;;;;;;;;;;8.43;74.42969;99723.68;;;;-78
2022/09/27 20:25:13;;;;;;;;;;;;;;;8.39;74.15723;99722.1;;;;-77
2022/09/27 20:30:14;;;;;;;;;;;;;;;8.31;74.49805;99719.95;;;;-76
2022/09/27 20:35:14;;;;;;;;;;;;;;;8.29;74.11816;99721.7;;;;-77
2022/09/27 20:40:13;;;;;;;;;;;;;;;8.21;74.33594;99716.64;;;;-78
2022/09/27 20:45:13;;;;;;;;;;;;;;;8.14;74.3584;99718.52;;;;-77
2022/09/27 20:50:03;;;;;;;4.1;2.2;;;;;;;;;;;;;-76
2022/09/27 20:50:13;;;;;;;;;;;;;;;8.08;74.36914;99710.6;;;;-77
2022/09/27 20:55:13;;;;;;;;;;;;;;;8.05;74.29883;99709.23;;;;-77
2022/09/27 21:00:15;;;;;;;;;;;;;;;7.99;74.28711;99706.88;;;;-76
2022/09/27 21:05:14;;;;;;;;;;;;;;;7.89;74.20605;99704.53;;;;-77
2022/09/27 21:10:13;;;;;;;;;;;;;;;7.89;74.15039;99702.98;;;;-76
2022/09/27 21:15:13;;;;;;;;;;;;;;;7.83;74.56836;99706.91;;;;-76
2022/09/27 21:20:04;;;;;;;4.6;2.4;;;;;;;;;;;;;-79
2022/09/27 21:20:15;;;;;;;;;;;;;;;7.83;74.21875;99705.71;;;;-76
2022/09/27 21:25:14;;;;;;;;;;;;;;;7.88;74.04883;99702.53;;;;-77
2022/09/27 21:30:16;;;;;;;;;;;;;;;7.9;74.19531;99699.14;;;;-77
2022/09/27 21:35:14;;;;;;;;;;;;;;;7.95;74.29297;99697.92;;;;-76
2022/09/27 21:40:14;;;;;;;;;;;;;;;7.96;74.54688;99697.66;;;;-77
2022/09/27 21:45:14;;;;;;;;;;;;;;;8.02;74.75684;99690.19;;;;-77
2022/09/27 21:50:04;;;;;;;4.2;2.5;;;;;;;;;;;;;-77
2022/09/27 21:50:13;;;;;;;;;;;;;;;8.03;74.94531;99690.28;;;;-76
2022/09/27 21:55:17;;;;;;;;;;;;;;;8.05;74.75195;99687.24;;;;-76
2022/09/27 22:00:14;;;;;;;;;;;;;;;8.08;75.39453;99674.54;;;;-77
2022/09/27 22:05:13;;;;;;;;;;;;;;;8.13;75.43652;99668.95;;;;-76
2022/09/27 22:10:14;;;;;;;;;;;;;;;8.13;75.83301;99667.6;;;;-77
2022/09/27 22:15:14;;;;;;;;;;;;;;;8.17;75.62988;99673.23;;;;-77
2022/09/27 22:20:05;;;;;;;5.4;2.8;;;;;;;;;;;;;-76
2022/09/27 22:20:14;;;;;;;;;;;;;;;8.14;75.20703;99672.39;;;;-78
2022/09/27 22:25:13;;;;;;;;;;;;;;;8.08;74.95508;99678.52;;;;-77
2022/09/27 22:30:14;;;;;;;;;;;;;;;8.06;75.27148;99679.19;;;;-76
2022/09/27 22:35:14;;;;;;;;;;;;;;;8.02;75.11914;99671.03;;;;-78
2022/09/27 22:40:14;;;;;;;;;;;;;;;7.93;75.33594;99668.59;;;;-77
2022/09/27 22:45:13;;;;;;;;;;;;;;;7.84;75.51855;99664.56;;;;-77
2022/09/27 22:50:05;;;;;;;5.9;2.4;;;;;;;;;;;;;-78
2022/09/27 22:50:15;;;;;;;;;;;;;;;7.81;74.90625;99662.88;;;;-77
2022/09/27 22:55:13;;;;;;;;;;;;;;;7.79;75.16895;99660;;;;-79
2022/09/27 23:00:14;;;;;;;;;;;;;;;7.76;75.27441;99660.08;;;;-77
2022/09/27 23:05:13;;;;;;;;;;;;;;;7.81;75.00684;99658.23;;;;-76
2022/09/27 23:10:14;;;;;;;;;;;;;;;7.77;75.28516;99657.61;;;;-77
2022/09/27 23:15:13;;;;;;;;;;;;;;;7.83;75.1875;99659.22;;;;-78
2022/09/27 23:20:06;;;;;;;3.9;1.7;;;;;;;;;;;;;-75
2022/09/27 23:20:17;;;;;;;;;;;;;;;7.88;75.12793;99654.39;;;;-79
2022/09/27 23:25:13;;;;;;;;;;;;;;;7.92;74.66113;99658.91;;;;-77
2022/09/27 23:30:14;;;;;;;;;;;;;;;7.98;74.47461;99659.16;;;;-78
2022/09/27 23:35:14;;;;;;;;;;;;;;;7.98;74.54102;99655.47;;;;-75
2022/09/27 23:40:16;;;;;;;;;;;;;;;8.02;74.5459;99652.3;;;;-78
2022/09/27 23:45:14;;;;;;;;;;;;;;;8.03;74.19629;99644.92;;;;-78
2022/09/27 23:50:07;;;;;;;3.9;1.7;;;;;;;;;;;;;-79
2022/09/27 23:50:16;;;;;;;;;;;;;;;8.05;74.5957;99634.95;;;;-74
2022/09/27 23:55:13;;;;;;;;;;;;;;;8.05;74.43262;99628.89;;;;-80
